createdAt,value
2018-03-17T00:00:13.003Z,6.00
2018-03-17T00:02:40.706Z,7.17
2018-03-17T00:05:08.492Z,5.60
2018-03-17T00:07:36.090Z,5.40
2018-03-17T00:10:03.623Z,6.27
2018-03-17T00:12:31.188Z,6.27
2018-03-17T00:14:59.799Z,6.70
2018-03-17T00:17:27.632Z,12.10
2018-03-17T00:19:55.174Z,10.07
2018-03-17T00:22:22.754Z,9.80
2018-03-17T00:24:50.278Z,9.80
2018-03-17T00:27:17.880Z,10.30
2018-03-17T00:29:45.380Z,9.60
2018-03-17T00:32:12.955Z,12.20
2018-03-17T00:34:41.257Z,12.03
2018-03-17T00:37:08.867Z,13.03
2018-03-17T00:39:36.395Z,12.20
2018-03-17T00:42:04.734Z,10.97
2018-03-17T00:44:32.295Z,12.83
2018-03-17T00:46:59.859Z,13.00
2018-03-17T00:49:27.590Z,9.10
2018-03-17T00:51:55.143Z,8.70
2018-03-17T00:54:22.678Z,8.50
2018-03-17T00:56:51.034Z,9.40
2018-03-17T00:59:18.567Z,9.30
2018-03-17T01:01:46.178Z,9.40
2018-03-17T01:04:13.766Z,9.90
2018-03-17T01:06:41.317Z,9.97
2018-03-17T01:09:09.606Z,10.27
2018-03-17T01:11:37.138Z,12.53
2018-03-17T01:14:05.499Z,12.33
2018-03-17T01:16:33.066Z,12.97
2018-03-17T01:19:00.630Z,11.70
2018-03-17T01:21:28.923Z,11.83
2018-03-17T01:23:57.247Z,12.17
2018-03-17T01:26:24.831Z,13.30
2018-03-17T01:28:52.390Z,12.60
2018-03-17T01:31:19.926Z,12.20
2018-03-17T01:33:47.541Z,12.27
2018-03-17T01:36:15.842Z,12.97
2018-03-17T01:38:43.394Z,13.60
2018-03-17T01:41:10.945Z,14.47
2018-03-17T01:43:38.498Z,15.60
2018-03-17T01:46:06.825Z,16.37
2018-03-17T01:48:35.150Z,15.17
2018-03-17T01:51:03.467Z,14.80
2018-03-17T01:53:31.037Z,15.90
2018-03-17T01:55:58.569Z,16.13
2018-03-17T01:58:26.134Z,17.67
2018-03-17T02:00:53.676Z,18.73
2018-03-17T02:03:21.227Z,18.40
2018-03-17T02:05:49.522Z,19.90
2018-03-17T02:08:17.079Z,19.37
2018-03-17T02:10:44.615Z,18.80
2018-03-17T02:13:12.948Z,23.20
2018-03-17T02:15:40.479Z,18.87
2018-03-17T02:18:08.036Z,20.80
2018-03-17T02:20:35.579Z,21.30
2018-03-17T02:23:03.903Z,21.50
2018-03-17T02:25:31.433Z,21.60
2018-03-17T02:27:58.987Z,21.53
2018-03-17T02:30:26.532Z,22.30
2018-03-17T02:32:54.864Z,21.07
2018-03-17T02:35:22.396Z,25.30
2018-03-17T02:37:49.954Z,22.43
2018-03-17T02:40:17.496Z,23.20
2018-03-17T02:42:45.829Z,21.90
2018-03-17T02:45:13.369Z,20.67
2018-03-17T02:47:40.936Z,25.40
2018-03-17T02:50:08.476Z,23.70
2018-03-17T02:52:36.080Z,24.47
2018-03-17T02:55:03.582Z,22.97
2018-03-17T02:57:31.142Z,23.40
2018-03-17T02:59:58.676Z,23.30
2018-03-17T03:02:26.254Z,22.97
2018-03-17T03:04:54.587Z,23.20
2018-03-17T03:07:22.147Z,20.57
2018-03-17T03:09:49.674Z,19.20
2018-03-17T03:12:17.240Z,20.03
2018-03-17T03:14:44.814Z,21.00
2018-03-17T03:17:12.384Z,23.30
2018-03-17T03:19:39.916Z,21.47
2018-03-17T03:22:07.502Z,22.07
2018-03-17T03:24:35.053Z,22.63
2018-03-17T03:27:02.615Z,20.57
2018-03-17T03:29:30.178Z,22.30
2018-03-17T03:31:57.710Z,21.60
2018-03-17T03:34:25.290Z,21.17
2018-03-17T03:36:52.828Z,21.10
2018-03-17T03:39:20.382Z,20.40
2018-03-17T03:41:47.982Z,20.37
2018-03-17T03:44:15.543Z,20.77
2018-03-17T03:46:43.084Z,20.07
2018-03-17T03:49:10.707Z,20.60
2018-03-17T03:51:39.006Z,20.80
2018-03-17T03:54:06.570Z,21.53
2018-03-17T03:56:34.099Z,20.43
2018-03-17T03:59:02.434Z,22.67
2018-03-17T04:01:29.964Z,22.13
2018-03-17T04:03:57.518Z,24.87
2018-03-17T04:06:25.042Z,22.40
2018-03-17T04:08:52.612Z,25.33
2018-03-17T04:11:20.915Z,21.37
2018-03-17T04:13:48.475Z,19.53
2018-03-17T04:16:16.007Z,19.27
2018-03-17T04:18:44.412Z,24.30
2018-03-17T04:21:11.991Z,23.90
2018-03-17T04:23:39.552Z,22.87
2018-03-17T04:26:07.134Z,24.50
2018-03-17T04:28:35.497Z,21.80
2018-03-17T04:31:03.027Z,25.00
2018-03-17T04:33:30.583Z,22.40
2018-03-17T04:35:58.874Z,20.43
2018-03-17T04:38:26.431Z,19.87
2018-03-17T04:40:53.966Z,20.30
2018-03-17T04:43:22.295Z,22.40
2018-03-17T04:45:49.827Z,21.13
2018-03-17T04:48:17.410Z,20.73
2018-03-17T04:50:44.942Z,22.63
2018-03-17T04:53:12.498Z,20.60
2018-03-17T04:55:40.038Z,20.97
2018-03-17T04:58:07.598Z,23.97
2018-03-17T05:00:35.125Z,23.07
2018-03-17T05:03:03.450Z,21.73
2018-03-17T05:05:31.750Z,20.83
2018-03-17T05:07:59.306Z,21.90
2018-03-17T05:10:26.869Z,20.10
2018-03-17T05:12:54.436Z,23.53
2018-03-17T05:15:21.965Z,23.27
2018-03-17T05:17:50.284Z,23.03
2018-03-17T05:20:17.823Z,22.23
2018-03-17T05:22:45.374Z,21.90
2018-03-17T05:25:12.907Z,21.70
2018-03-17T05:27:40.471Z,21.60
2018-03-17T05:30:08.770Z,19.83
2018-03-17T05:32:36.310Z,18.77
2018-03-17T05:35:04.640Z,18.53
2018-03-17T05:37:32.175Z,19.40
2018-03-17T05:39:59.731Z,20.83
2018-03-17T05:42:27.260Z,17.80
2018-03-17T05:44:54.823Z,19.43
2018-03-17T05:47:23.122Z,18.40
2018-03-17T05:49:50.674Z,20.80
2018-03-17T05:52:18.989Z,19.57
2018-03-17T05:54:47.958Z,19.13
2018-03-17T05:57:15.495Z,18.13
2018-03-17T05:59:43.818Z,20.27
2018-03-17T06:02:11.352Z,19.50
2018-03-17T06:04:38.915Z,22.33
2018-03-17T06:07:06.447Z,21.87
2018-03-17T06:09:34.774Z,21.20
2018-03-17T06:12:02.294Z,21.27
2018-03-17T06:14:30.616Z,20.10
2018-03-17T06:16:58.142Z,21.70
2018-03-17T06:19:26.462Z,22.10
2018-03-17T06:21:53.991Z,23.60
2018-03-17T06:24:21.546Z,20.07
2018-03-17T06:26:49.078Z,19.67
2018-03-17T06:29:17.401Z,19.40
2018-03-17T06:31:44.936Z,21.80
2018-03-17T06:34:12.538Z,20.07
2018-03-17T06:57:25.111Z,21.25
2018-03-17T06:59:52.839Z,23.13
2018-03-17T07:02:20.403Z,22.00
2018-03-17T07:04:47.963Z,22.20
2018-03-17T07:07:15.499Z,21.67
2018-03-17T07:09:43.050Z,23.67
2018-03-17T07:12:10.587Z,24.67
2018-03-17T07:14:38.645Z,26.20
2018-03-17T07:17:06.626Z,21.90
2018-03-17T07:19:34.278Z,26.47
2018-03-17T07:22:01.922Z,23.50
2018-03-17T07:24:30.542Z,23.57
2018-03-17T07:26:58.149Z,21.93
2018-03-17T07:29:25.700Z,22.83
2018-03-17T07:31:53.231Z,24.73
2018-03-17T07:34:21.549Z,22.70
2018-03-17T07:36:49.083Z,26.23
2018-03-17T07:39:16.634Z,23.37
2018-03-17T07:41:44.927Z,24.80
2018-03-17T07:44:12.491Z,25.70
2018-03-17T07:46:40.046Z,23.17
2018-03-17T07:49:07.610Z,26.00
2018-03-17T07:51:35.146Z,24.40
2018-03-17T07:54:03.475Z,22.90
2018-03-17T07:56:31.014Z,24.50
2018-03-17T07:58:58.647Z,24.97
2018-03-17T08:01:26.948Z,24.00
2018-03-17T08:03:54.517Z,24.90
2018-03-17T08:06:22.050Z,26.30
2018-03-17T08:08:49.598Z,23.00
2018-03-17T08:11:17.899Z,24.33
2018-03-17T08:13:45.455Z,23.30
2018-03-17T08:16:12.996Z,24.43
2018-03-17T08:18:41.315Z,24.20
2018-03-17T08:21:08.854Z,24.07
2018-03-17T08:23:36.430Z,22.90
2018-03-17T08:26:03.962Z,24.30
2018-03-17T08:28:31.534Z,24.37
2018-03-17T08:30:59.066Z,22.80
2018-03-17T08:33:27.394Z,21.37
2018-03-17T08:35:54.945Z,24.00
2018-03-17T08:38:22.538Z,22.20
2018-03-17T08:40:50.075Z,24.30
2018-03-17T08:43:17.609Z,24.60
2018-03-17T08:45:45.155Z,25.67
2018-03-17T08:48:13.447Z,23.27
2018-03-17T08:50:41.001Z,22.30
2018-03-17T08:53:08.555Z,23.77
2018-03-17T08:55:36.106Z,24.53
2018-03-17T08:58:04.405Z,25.40
2018-03-17T09:00:31.959Z,23.67
2018-03-17T09:02:59.495Z,25.80
2018-03-17T09:05:27.839Z,25.10
2018-03-17T09:07:55.368Z,23.43
2018-03-17T09:10:23.376Z,23.47
2018-03-17T09:12:52.061Z,25.73
2018-03-17T09:15:20.284Z,22.50
2018-03-17T09:17:49.031Z,19.80
2018-03-17T09:20:17.378Z,23.00
2018-03-17T09:22:44.898Z,22.00
2018-03-17T09:25:13.218Z,24.90
2018-03-17T09:27:40.822Z,24.00
2018-03-17T09:30:08.382Z,24.90
2018-03-17T09:32:35.916Z,24.03
2018-03-17T09:35:03.707Z,26.20
2018-03-17T09:37:31.244Z,25.50
2018-03-17T09:39:58.818Z,23.87
2018-03-17T09:42:26.342Z,25.63
2018-03-17T09:44:53.899Z,24.80
2018-03-17T09:47:21.438Z,24.60
2018-03-17T09:49:48.995Z,26.50
2018-03-17T09:52:16.553Z,26.63
2018-03-17T09:54:44.867Z,26.33
2018-03-17T09:57:12.400Z,23.40
2018-03-17T09:59:39.954Z,25.90
2018-03-17T10:02:07.490Z,25.67
2018-03-17T10:04:35.807Z,21.90
2018-03-17T10:07:03.340Z,25.23
2018-03-17T10:09:31.662Z,24.93
2018-03-17T10:11:59.181Z,24.73
2018-03-17T10:14:26.747Z,24.13
2018-03-17T10:16:54.287Z,24.20
2018-03-17T10:19:22.606Z,26.30
2018-03-17T10:21:50.130Z,25.10
2018-03-17T10:24:17.693Z,25.30
2018-03-17T10:26:45.230Z,24.50
2018-03-17T10:29:12.790Z,22.10
2018-03-17T10:31:40.345Z,22.80
2018-03-17T10:34:07.924Z,24.80
2018-03-17T10:36:36.222Z,25.17
2018-03-17T10:39:03.795Z,21.80
2018-03-17T10:41:31.339Z,25.77
2018-03-17T10:43:58.920Z,22.40
2018-03-17T10:46:26.454Z,21.60
2018-03-17T10:48:54.044Z,22.77
2018-03-17T10:51:21.582Z,24.60
2018-03-17T10:53:49.135Z,22.08
2018-03-17T10:56:16.700Z,22.67
2018-03-17T10:58:44.248Z,21.63
2018-03-17T11:01:18.160Z,20.80
2018-03-17T11:03:45.694Z,21.33
2018-03-17T11:06:13.293Z,21.63
2018-03-17T11:08:41.571Z,20.73
2018-03-17T11:11:09.140Z,20.60
2018-03-17T11:13:36.675Z,20.47
2018-03-17T11:16:04.998Z,21.77
2018-03-17T11:18:32.530Z,20.50
2018-03-17T11:21:00.082Z,24.90
2018-03-17T11:23:28.384Z,23.63
2018-03-17T11:25:55.955Z,22.90
2018-03-17T11:28:23.531Z,20.60
2018-03-17T11:30:51.075Z,24.67
2018-03-17T11:33:19.375Z,23.00
2018-03-17T11:35:46.925Z,23.40
2018-03-17T11:38:14.474Z,20.70
2018-03-17T11:40:42.039Z,20.60
2018-03-17T11:43:09.584Z,21.45
2018-03-17T11:45:37.150Z,19.25
2018-03-17T11:48:04.682Z,19.90
2018-03-17T11:50:32.235Z,20.27
2018-03-17T11:52:59.767Z,23.00
2018-03-17T11:55:27.321Z,21.40
2018-03-17T11:57:54.858Z,20.17
2018-03-17T12:00:22.415Z,18.80
2018-03-17T12:02:49.976Z,21.03
2018-03-17T12:05:17.526Z,20.03
2018-03-17T12:07:45.062Z,22.27
2018-03-17T12:10:12.610Z,22.97
2018-03-17T12:12:40.142Z,22.57
2018-03-17T12:15:07.698Z,20.30
2018-03-17T12:17:35.234Z,20.60
2018-03-17T12:20:02.787Z,21.53
2018-03-17T12:22:30.316Z,20.20
2018-03-17T12:24:57.879Z,21.25
2018-03-17T12:27:25.409Z,20.53
2018-03-17T12:29:53.743Z,20.47
2018-03-17T12:32:21.271Z,20.80
2018-03-17T12:34:48.827Z,19.07
2018-03-17T12:37:16.360Z,21.42
2018-03-17T12:39:44.695Z,23.77
2018-03-17T12:42:12.222Z,22.17
2018-03-17T12:44:39.780Z,22.10
2018-03-17T12:47:07.315Z,19.43
2018-03-17T12:49:35.643Z,18.30
2018-03-17T12:52:03.180Z,18.67
2018-03-17T12:54:30.739Z,21.03
2018-03-17T12:56:58.271Z,19.57
2018-03-17T12:59:26.598Z,19.07
2018-03-17T13:01:54.135Z,19.87
2018-03-17T13:04:21.699Z,17.20
2018-03-17T13:06:49.259Z,21.10
2018-03-17T13:09:16.798Z,19.47
2018-03-17T13:11:45.123Z,20.83
2018-03-17T13:14:12.651Z,18.13
2018-03-17T13:16:40.227Z,20.33
2018-03-17T13:19:19.830Z,17.53
2018-03-17T13:21:48.161Z,21.03
2018-03-17T13:24:15.699Z,17.97
2018-03-17T13:26:43.259Z,19.77
2018-03-17T13:29:10.795Z,20.80
2018-03-17T13:31:39.123Z,19.83
2018-03-17T13:34:06.664Z,20.13
2018-03-17T13:39:41.090Z,18.00
2018-03-17T13:42:08.618Z,19.27
2018-03-17T13:44:36.155Z,20.37
2018-03-17T13:47:03.718Z,18.73
2018-03-17T13:49:31.254Z,20.67
2018-03-17T13:51:58.815Z,18.73
2018-03-17T13:54:26.353Z,19.33
2018-03-17T13:56:53.919Z,18.73
2018-03-17T13:59:21.450Z,19.53
2018-03-17T14:01:49.774Z,20.33
2018-03-17T14:04:17.310Z,18.33
2018-03-17T14:06:44.871Z,21.10
2018-03-17T14:09:12.406Z,18.57
2018-03-17T14:11:40.744Z,17.97
2018-03-17T14:14:08.293Z,19.30
2018-03-17T14:16:35.851Z,19.47
2018-03-17T14:19:03.400Z,18.70
2018-03-17T14:21:30.956Z,21.97
2018-03-17T14:23:58.522Z,19.43
2018-03-17T14:26:26.066Z,18.07
2018-03-17T14:28:53.600Z,17.90
2018-03-17T14:31:29.452Z,19.83
2018-03-17T14:33:58.611Z,19.43
2018-03-17T14:36:26.167Z,16.93
2018-03-17T14:38:53.703Z,18.80
2018-03-17T14:41:21.263Z,18.63
2018-03-17T14:43:48.786Z,20.20
2018-03-17T14:46:17.119Z,16.53
2018-03-17T14:48:44.652Z,17.80
2018-03-17T14:51:12.211Z,20.20
2018-03-17T14:53:39.738Z,19.07
2018-03-17T14:56:07.295Z,18.17
2018-03-17T14:58:34.833Z,17.27
2018-03-17T15:01:02.383Z,17.57
2018-03-17T15:03:29.909Z,16.77
2018-03-17T15:05:57.470Z,17.83
2018-03-17T15:08:24.994Z,18.33
2018-03-17T15:10:53.339Z,18.53
2018-03-17T15:13:20.877Z,17.73
2018-03-17T15:15:48.426Z,17.50
2018-03-17T15:18:15.952Z,17.13
2018-03-17T15:20:43.510Z,18.77
2018-03-17T15:23:11.239Z,17.10
2018-03-17T15:25:38.798Z,16.90
2018-03-17T15:28:06.331Z,17.10
2018-03-17T15:30:33.887Z,17.03
2018-03-17T15:33:01.421Z,16.60
2018-03-17T15:35:29.741Z,14.97
2018-03-17T15:37:57.330Z,16.90
2018-03-17T15:40:25.010Z,15.90
2018-03-17T15:42:52.575Z,14.60
2018-03-17T15:45:20.131Z,15.83
2018-03-17T15:47:47.716Z,17.60
2018-03-17T15:50:15.282Z,15.77
2018-03-17T15:52:42.820Z,17.37
2018-03-17T15:55:11.159Z,17.23
2018-03-17T15:57:38.696Z,16.00
2018-03-17T16:00:06.277Z,17.77
2018-03-17T16:02:33.844Z,16.15
2018-03-17T16:05:01.382Z,15.47
2018-03-17T16:07:28.996Z,15.17
2018-03-17T16:09:56.511Z,16.62
2018-03-17T16:12:24.071Z,18.10
2018-03-17T16:14:51.607Z,17.70
2018-03-17T16:17:19.184Z,16.00
2018-03-17T16:19:46.840Z,17.27
2018-03-17T16:22:14.409Z,16.23
2018-03-17T16:24:42.721Z,16.40
2018-03-17T16:27:10.279Z,16.13
2018-03-17T16:29:37.822Z,17.43
2018-03-17T16:32:05.386Z,17.30
2018-03-17T16:34:32.926Z,15.73
2018-03-17T16:37:00.490Z,17.67
2018-03-17T16:39:28.031Z,16.65
2018-03-17T16:41:55.600Z,17.92
2018-03-17T16:44:23.148Z,16.37
2018-03-17T16:46:50.707Z,17.77
2018-03-17T16:49:18.247Z,16.42
2018-03-17T16:51:45.846Z,17.77
2018-03-17T16:54:13.383Z,14.87
2018-03-17T16:56:40.938Z,16.93
2018-03-17T16:59:08.479Z,15.57
2018-03-17T17:01:36.816Z,18.50
2018-03-17T17:04:04.357Z,16.87
2018-03-17T17:06:31.922Z,17.77
2018-03-17T17:08:59.476Z,18.37
2018-03-17T17:11:27.063Z,15.98
2018-03-17T17:13:54.703Z,15.97
2018-03-17T17:16:22.260Z,16.83
2018-03-17T17:18:49.794Z,18.37
2018-03-17T17:21:17.370Z,15.70
2018-03-17T17:23:44.935Z,16.10
2018-03-17T17:26:12.499Z,16.45
2018-03-17T17:28:40.039Z,16.83
2018-03-17T17:31:07.645Z,16.42
2018-03-17T17:33:35.166Z,18.67
2018-03-17T17:36:02.771Z,17.25
2018-03-17T17:38:30.300Z,17.67
2018-03-17T17:40:57.870Z,14.95
2018-03-17T17:43:25.419Z,17.10
2018-03-17T17:45:53.045Z,16.33
2018-03-17T17:48:20.541Z,18.67
2018-03-17T17:50:48.106Z,16.27
2018-03-17T17:53:15.648Z,18.10
2018-03-17T17:55:43.223Z,18.12
2018-03-17T17:58:10.767Z,17.23
2018-03-17T18:00:38.338Z,17.70
2018-03-17T18:03:05.918Z,18.23
2018-03-17T18:05:33.450Z,16.97
2018-03-17T18:08:01.028Z,16.60
2018-03-17T18:10:28.574Z,15.17
2018-03-17T18:12:56.139Z,16.42
2018-03-17T18:15:23.683Z,16.55
2018-03-17T18:17:51.257Z,18.25
2018-03-17T18:20:18.790Z,17.42
2018-03-17T18:22:46.354Z,17.70
2018-03-17T18:25:13.894Z,17.00
2018-03-17T18:27:42.219Z,15.65
2018-03-17T18:30:09.793Z,16.23
2018-03-17T18:32:37.338Z,16.75
2018-03-17T18:35:04.882Z,16.02
2018-03-17T18:37:32.454Z,18.73
2018-03-17T18:39:59.990Z,17.58
2018-03-17T18:42:27.559Z,16.98
2018-03-17T18:44:55.099Z,18.50
2018-03-17T18:47:23.432Z,16.85
2018-03-17T18:49:50.972Z,17.27
2018-03-17T18:52:18.539Z,18.62
2018-03-17T18:54:46.080Z,15.52
2018-03-17T18:57:13.655Z,16.37
2018-03-17T18:59:41.195Z,15.35
2018-03-17T19:02:08.765Z,17.08
2018-03-17T19:04:36.306Z,17.75
2018-03-17T19:07:03.871Z,15.00
2018-03-17T19:09:31.418Z,15.63
2018-03-17T19:11:59.010Z,18.12
2018-03-17T19:14:26.553Z,17.55
2018-03-17T19:16:54.114Z,18.37
2018-03-17T19:19:21.663Z,17.87
2018-03-17T19:21:49.234Z,16.95
2018-03-17T19:24:16.779Z,19.58
2018-03-17T19:26:44.347Z,18.98
2018-03-17T19:29:11.888Z,19.05
2018-03-17T19:31:40.220Z,17.45
2018-03-17T19:34:07.750Z,18.12
2018-03-17T19:36:35.323Z,17.60
2018-03-17T19:39:02.866Z,18.23
2018-03-17T19:41:30.440Z,17.10
2018-03-17T19:43:57.981Z,20.37
2018-03-17T19:46:25.518Z,19.20
2018-03-17T19:48:53.852Z,19.80
2018-03-17T19:51:21.420Z,17.92
2018-03-17T19:53:49.751Z,20.27
2018-03-17T19:56:17.298Z,21.17
2018-03-17T19:58:45.623Z,19.00
2018-03-17T20:01:13.166Z,19.65
2018-03-17T20:03:40.722Z,19.37
2018-03-17T20:06:08.266Z,20.92
2018-03-17T20:08:35.834Z,22.30
2018-03-17T20:11:03.374Z,22.95
2018-03-17T20:13:31.708Z,19.77
2018-03-17T20:15:59.250Z,19.95
2018-03-17T20:18:26.810Z,21.95
2018-03-17T20:20:54.356Z,18.33
2018-03-17T20:23:21.931Z,18.65
2018-03-17T20:25:49.472Z,21.40
2018-03-17T20:28:17.010Z,17.00
2018-03-17T20:30:45.346Z,20.20
2018-03-17T20:33:12.882Z,19.73
2018-03-17T20:35:40.448Z,18.48
2018-03-17T20:38:07.994Z,16.87
2018-03-17T20:40:35.562Z,20.10
2018-03-17T20:43:03.156Z,17.95
2018-03-17T20:45:30.719Z,19.62
2018-03-17T20:47:58.266Z,17.60
2018-03-17T20:50:25.838Z,17.62
2018-03-17T20:52:53.380Z,20.35
2018-03-17T20:55:20.956Z,18.45
2018-03-17T20:57:48.527Z,17.70
2018-03-17T21:00:16.091Z,18.27
2018-03-17T21:02:43.634Z,18.42
2018-03-17T21:05:11.207Z,15.82
2018-03-17T21:07:38.765Z,20.50
2018-03-17T21:10:06.342Z,16.75
2018-03-17T21:12:34.651Z,17.42
2018-03-17T21:15:02.222Z,18.92
2018-03-17T21:17:29.768Z,18.08
2018-03-17T21:19:57.324Z,19.10
2018-03-17T21:22:24.884Z,18.55
2018-03-17T21:24:52.427Z,16.10
2018-03-17T21:27:20.761Z,16.37
2018-03-17T21:29:48.370Z,19.12
2018-03-17T21:32:16.655Z,16.67
2018-03-17T21:34:44.206Z,18.25
2018-03-17T21:37:12.544Z,18.17
2018-03-17T21:39:40.090Z,16.55
2018-03-17T21:42:07.664Z,19.37
2018-03-17T21:44:35.210Z,17.27
2018-03-17T21:47:02.778Z,16.67
2018-03-17T21:49:30.322Z,19.17
2018-03-17T21:51:57.882Z,16.45
2018-03-17T21:54:25.421Z,17.52
2018-03-17T21:56:52.982Z,15.85
2018-03-17T21:59:20.530Z,17.58
2018-03-17T22:01:48.098Z,16.42
2018-03-17T22:04:15.637Z,17.17
2018-03-17T22:06:43.986Z,16.85
2018-03-17T22:09:11.536Z,15.85
2018-03-17T22:11:39.079Z,15.73
2018-03-17T22:14:06.648Z,16.67
2018-03-17T22:16:34.186Z,17.80
2018-03-17T22:19:01.756Z,18.02
2018-03-17T22:21:29.303Z,15.70
2018-03-17T22:23:56.867Z,15.65
2018-03-17T22:26:24.408Z,17.58
2018-03-17T22:28:51.974Z,15.48
2018-03-17T22:31:19.518Z,16.77
2018-03-17T22:33:47.842Z,16.35
2018-03-17T22:36:15.384Z,17.23
2018-03-17T22:38:42.950Z,16.00
2018-03-17T22:41:10.494Z,15.00
2018-03-17T22:43:38.075Z,14.98
2018-03-17T22:46:05.618Z,15.07
2018-03-17T22:48:33.203Z,16.50
2018-03-17T22:51:00.754Z,16.37
2018-03-17T22:53:28.331Z,15.57
2018-03-17T22:55:56.694Z,15.10
2018-03-17T22:58:24.255Z,17.02
2018-03-17T23:00:51.918Z,17.20
2018-03-17T23:03:19.455Z,11.95
2018-03-17T23:05:47.243Z,16.58
2018-03-17T23:08:14.807Z,16.75
2018-03-17T23:10:42.377Z,14.85
2018-03-17T23:13:09.926Z,16.92
2018-03-17T23:15:37.491Z,17.17
2018-03-17T23:18:05.022Z,16.40
2018-03-17T23:20:32.579Z,14.50
2018-03-17T23:23:00.206Z,15.40
2018-03-17T23:25:28.549Z,15.85
2018-03-17T23:27:56.078Z,16.83
2018-03-17T23:30:23.826Z,15.63
2018-03-17T23:32:52.127Z,14.68
2018-03-17T23:35:19.747Z,14.77
2018-03-17T23:37:47.291Z,14.32
2018-03-17T23:40:14.970Z,13.95
2018-03-17T23:42:42.510Z,17.35
2018-03-17T23:45:10.178Z,15.02
2018-03-17T23:47:37.748Z,15.27
2018-03-17T23:50:05.282Z,15.00
2018-03-17T23:52:32.843Z,15.00
2018-03-17T23:55:00.390Z,15.80
2018-03-17T23:57:27.950Z,15.02
2018-03-17T23:59:55.490Z,14.95
